Time;durP1;ratioP1;P1;durP2;ratioP2;P2;SDS_P1;SDS_P2;PMS_P1;PMS_P2;Temp;Humidity;BMP_temperature;BMP_pressure;BME280_temperature;BME280_humidity;BME280_pressure;Samples;Min_cycle;Max_cycle;Signal;HPM_P1;HPM_P2
2023/06/22 00:02:43;;;;;;;;;;;;;;;;;;137948;1271;22497;-83
2023/06/22 00:05:44;;;;;;;;;;;;;;;;;;137526;1271;22606;-83
2023/06/22 00:08:46;;;;;;;;;;;;;;;;;;137414;1269;22538;-83
2023/06/22 00:11:47;;;;;;;;;;;;;;;;;;137371;1267;22524;-82
2023/06/22 00:14:48;;;;;;;;;;;;;;;;;;137729;1271;22541;-82
2023/06/22 00:17:50;;;;;;;;;;;;;;;;;;137527;1271;22548;-82
2023/06/22 00:20:56;;;;;;;;;;;;;;;;;;137311;1271;22614;-82
2023/06/22 00:23:57;;;;;;;;;;;;;;;;;;137213;1271;326156;-82
2023/06/22 00:26:58;;;;;;;;;;;;;;;;;;137745;1271;22497;-83
2023/06/22 00:30:00;;;;;;;;;;;;;;;;;;137725;1266;22511;-82
2023/06/22 00:33:01;;;;;;;;;;;;;;;;;;137883;1271;22343;-82
2023/06/22 00:36:03;;;;;;;;;;;;;;;;;;137732;1271;22626;-82
2023/06/22 00:39:05;;;;;;;;;;;;;;;;;;137855;1271;22513;-82
2023/06/22 00:42:06;;;;;;;;;;;;;;;;;;137839;1271;22566;-81
2023/06/22 00:45:07;;;;;;;;;;;;;;;;;;137565;1271;22548;-82
2023/06/22 00:48:09;;;;;;;;;;;;;;;;;;137311;1271;22498;-84
2023/06/22 00:51:10;;;;;;;;;;;;;;;;;;137701;1271;22531;-82
2023/06/22 00:54:13;;;;;;;;;;;;;;;;;;137640;1271;22523;-83
2023/06/22 00:57:15;;;;;;;;;;;;;;;;;;137854;1271;22401;-83
2023/06/22 01:00:17;;;;;;;;;;;;;;;;;;137774;1271;22496;-84
2023/06/22 01:03:20;;;;;;;;;;;;;;;;;;137703;1271;22600;-83
2023/06/22 01:06:24;;;;;;;;;;;;;;;;;;137783;1271;22506;-82
2023/06/22 01:09:25;;;;;;;;;;;;;;;;;;137819;1271;23014;-83
2023/06/22 01:12:26;;;;;;;;;;;;;;;;;;137787;1271;22518;-82
2023/06/22 01:15:27;;;;;;;;;;;;;;;;;;137912;1271;22269;-83
2023/06/22 01:18:28;;;;;;;;;;;;;;;;;;137750;1271;22586;-83
2023/06/22 01:21:29;;;;;;;;;;;;;;;;;;137810;1271;22562;-82
2023/06/22 01:24:31;;;;;;;;;;;;;;;;;;137875;1271;22575;-82
2023/06/22 01:27:32;;;;;;;;;;;;;;;;;;137778;1271;22967;-83
2023/06/22 01:30:34;;;;;;;;;;;;;;;;;;137800;1271;23077;-82
2023/06/22 01:33:35;;;;;;;;;;;;;;;;;;137775;1271;22551;-82
2023/06/22 01:36:36;;;;;;;;;;;;;;;;;;137771;1271;22494;-82
2023/06/22 01:39:38;;;;;;;;;;;;;;;;;;137748;1271;22494;-83
2023/06/22 01:42:39;;;;;;;;;;;;;;;;;;137799;1271;22521;-83
2023/06/22 01:45:40;;;;;;;;;;;;;;;;;;137721;1271;22552;-83
2023/06/22 01:48:41;;;;;;;;;;;;;;;;;;137878;1271;22377;-83
2023/06/22 01:51:42;;;;;;;;;;;;;;;;;;137784;1271;22849;-83
2023/06/22 01:54:43;;;;;;;;;;;;;;;;;;137740;1271;22530;-83
2023/06/22 01:57:44;;;;;;;;;;;;;;;;;;137769;1264;23356;-82
2023/06/22 02:00:45;;;;;;;;;;;;;;;;;;137765;1271;22484;-83
2023/06/22 02:03:47;;;;;;;;;;;;;;;;;;137815;1271;22489;-83
2023/06/22 02:06:48;;;;;;;;;;;;;;;;;;137697;1271;22491;-83
2023/06/22 02:09:49;;;;;;;;;;;;;;;;;;137711;1271;22977;-82
2023/06/22 02:12:50;;;;;;;;;;;;;;;;;;137873;1271;23043;-82
2023/06/22 02:15:51;;;;;;;;;;;;;;;;;;137749;1271;22560;-81
2023/06/22 02:18:52;;;;;;;;;;;;;;;;;;137836;1271;22830;-82
2023/06/22 02:21:53;;;;;;;;;;;;;;;;;;137799;1271;22534;-82
2023/06/22 02:24:55;;;;;;;;;;;;;;;;;;137799;1271;22515;-82
2023/06/22 02:27:56;;;;;;;;;;;;;;;;;;137858;1271;22956;-81
2023/06/22 02:30:57;;;;;;;;;;;;;;;;;;137760;1271;22506;-82
2023/06/22 02:33:58;;;;;;;;;;;;;;;;;;137680;1271;22534;-82
2023/06/22 02:37:02;;;;;;;;;;;;;;;;;;137790;1271;22525;-81
2023/06/22 02:40:04;;;;;;;;;;;;;;;;;;137791;1271;22875;-82
2023/06/22 02:43:05;;;;;;;;;;;;;;;;;;137921;1271;22270;-81
2023/06/22 02:46:06;;;;;;;;;;;;;;;;;;137742;1271;23072;-82
2023/06/22 02:49:07;;;;;;;;;;;;;;;;;;137748;1271;22517;-82
2023/06/22 02:52:08;;;;;;;;;;;;;;;;;;137347;1271;22502;-81
2023/06/22 02:55:09;;;;;;;;;;;;;;;;;;137804;1271;23094;-83
2023/06/22 02:58:14;;;;;;;;;;;;;;;;;;137670;1271;22574;-82
2023/06/22 03:01:23;;;;;;;;;;;;;;;;;;137716;1271;22524;-82
2023/06/22 03:04:24;;;;;;;;;;;;;;;;;;137519;1266;22540;-82
2023/06/22 03:07:25;;;;;;;;;;;;;;;;;;137547;1271;22510;-85
2023/06/22 03:10:26;;;;;;;;;;;;;;;;;;137725;1271;22531;-83
2023/06/22 03:13:27;;;;;;;;;;;;;;;;;;137727;1271;22500;-82
2023/06/22 03:16:29;;;;;;;;;;;;;;;;;;137691;1267;22504;-82
2023/06/22 03:19:31;;;;;;;;;;;;;;;;;;137844;1271;22339;-82
2023/06/22 03:22:32;;;;;;;;;;;;;;;;;;137703;1271;22530;-82
2023/06/22 03:25:33;;;;;;;;;;;;;;;;;;137715;1271;22508;-82
2023/06/22 03:28:35;;;;;;;;;;;;;;;;;;137722;1271;22512;-82
2023/06/22 03:31:36;;;;;;;;;;;;;;;;;;137801;1271;22506;-82
2023/06/22 03:34:37;;;;;;;;;;;;;;;;;;137871;1271;22413;-82
2023/06/22 03:37:38;;;;;;;;;;;;;;;;;;137801;1271;22572;-82
2023/06/22 03:40:39;;;;;;;;;;;;;;;;;;137850;1271;22694;-81
2023/06/22 03:43:40;;;;;;;;;;;;;;;;;;137705;1271;22569;-81
2023/06/22 03:46:41;;;;;;;;;;;;;;;;;;137774;1271;22485;-82
2023/06/22 03:49:42;;;;;;;;;;;;;;;;;;137841;1271;22293;-82
2023/06/22 03:52:43;;;;;;;;;;;;;;;;;;137805;1271;22395;-82
2023/06/22 03:55:44;;;;;;;;;;;;;;;;;;137809;1271;22406;-82
2023/06/22 03:58:45;;;;;;;;;;;;;;;;;;137813;1271;22256;-83
2023/06/22 04:01:47;;;;;;;;;;;;;;;;;;137799;1271;22339;-82
2023/06/22 04:04:48;;;;;;;;;;;;;;;;;;137311;1271;22482;-83
2023/06/22 04:07:49;;;;;;;;;;;;;;;;;;137747;1271;22922;-83
2023/06/22 04:10:50;;;;;;;;;;;;;;;;;;137828;1271;22518;-82
2023/06/22 04:13:51;;;;;;;;;;;;;;;;;;137624;1271;22484;-82
2023/06/22 04:16:52;;;;;;;;;;;;;;;;;;137834;1271;22269;-82
2023/06/22 04:19:53;;;;;;;;;;;;;;;;;;137778;1271;22268;-81
2023/06/22 04:22:54;;;;;;;;;;;;;;;;;;137832;1271;22320;-82
2023/06/22 04:25:56;;;;;;;;;;;;;;;;;;137800;1271;22224;-82
2023/06/22 04:28:57;;;;;;;;;;;;;;;;;;137764;1271;22495;-82
2023/06/22 05:03:03;;;;;;;;;;;;;;;;;;132958;1311;544127;-79
2023/06/22 05:06:05;;;;;;;;;;;;;;;;;;136232;1285;22561;-78
2023/06/22 05:09:08;;;;;;;;;;;;;;;;;;136588;1285;22299;-79
2023/06/22 05:12:13;;;;;;;;;;;;;;;;;;137622;1273;22402;-78
2023/06/22 05:15:16;;;;;;;;;;;;;;;;;;137569;1271;159374;-82
2023/06/22 05:18:23;;;;;;;;;;;;;;;;;;137796;1271;22362;-82
2023/06/22 05:21:25;;;;;;;;;;;;;;;;;;137801;1271;22776;-79
2023/06/22 05:24:30;;;;;;;;;;;;;;;;;;137804;1271;22318;-81
2023/06/22 05:27:32;;;;;;;;;;;;;;;;;;137741;1271;22302;-81
2023/06/22 05:30:35;;;;;;;;;;;;;;;;;;137777;1271;22397;-81
2023/06/22 05:33:37;;;;;;;;;;;;;;;;;;137751;1271;22796;-81
2023/06/22 05:36:40;;;;;;;;;;;;;;;;;;137711;1271;22348;-82
2023/06/22 05:39:42;;;;;;;;;;;;;;;;;;137755;1271;22618;-82
2023/06/22 05:42:45;;;;;;;;;;;;;;;;;;137718;1271;22716;-82
2023/06/22 05:45:47;;;;;;;;;;;;;;;;;;137714;1271;22370;-81
2023/06/22 05:48:50;;;;;;;;;;;;;;;;;;137753;1271;22255;-82
2023/06/22 05:51:52;;;;;;;;;;;;;;;;;;137745;1271;22350;-82
2023/06/22 05:54:54;;;;;;;;;;;;;;;;;;137559;1271;22519;-82
2023/06/22 05:57:57;;;;;;;;;;;;;;;;;;137352;1271;22543;-81
2023/06/22 06:01:00;;;;;;;;;;;;;;;;;;137689;1271;23319;-81
2023/06/22 06:04:03;;;;;;;;;;;;;;;;;;137767;1271;22302;-82
2023/06/22 06:07:06;;;;;;;;;;;;;;;;;;137739;1272;22397;-81
2023/06/22 06:10:08;;;;;;;;;;;;;;;;;;137774;1271;22682;-81
2023/06/22 06:13:11;;;;;;;;;;;;;;;;;;137713;1271;22319;-83
2023/06/22 06:16:13;;;;;;;;;;;;;;;;;;137709;1268;22262;-83
2023/06/22 06:19:16;;;;;;;;;;;;;;;;;;137714;1271;22186;-83
2023/06/22 06:22:18;;;;;;;;;;;;;;;;;;137694;1271;22321;-81
2023/06/22 06:25:21;;;;;;;;;;;;;;;;;;137664;1267;22337;-83
2023/06/22 06:28:24;;;;;;;;;;;;;;;;;;137695;1271;22350;-83
2023/06/22 06:31:28;;;;;;;;;;;;;;;;;;137723;1271;22875;-83
2023/06/22 06:34:31;;;;;;;;;;;;;;;;;;137780;1260;22263;-84
2023/06/22 06:37:33;;;;;;;;;;;;;;;;;;137771;1272;22270;-83
2023/06/22 06:40:35;;;;;;;;;;;;;;;;;;137738;1272;22299;-84
2023/06/22 06:43:38;;;;;;;;;;;;;;;;;;137756;1263;22389;-82
2023/06/22 06:46:41;;;;;;;;;;;;;;;;;;137577;1271;22942;-83
2023/06/22 06:49:46;;;;;;;;;;;;;;;;;;137836;1271;22346;-86
2023/06/22 06:52:49;;;;;;;;;;;;;;;;;;137705;1271;22508;-85
2023/06/22 06:55:52;;;;;;;;;;;;;;;;;;137803;1271;22274;-85
2023/06/22 06:58:55;;;;;;;;;;;;;;;;;;137782;1271;22348;-84
2023/06/22 07:01:58;;;;;;;;;;;;;;;;;;137727;1271;22895;-84
2023/06/22 07:05:02;;;;;;;;;;;;;;;;;;137729;1271;22341;-84
2023/06/22 07:08:05;;;;;;;;;;;;;;;;;;137773;1271;22297;-83
2023/06/22 07:11:08;;;;;;;;;;;;;;;;;;137710;1271;22270;-83
2023/06/22 07:14:10;;;;;;;;;;;;;;;;;;137697;1266;22264;-83
2023/06/22 07:17:13;;;;;;;;;;;;;;;;;;137743;1271;22243;-83
2023/06/22 07:20:16;;;;;;;;;;;;;;;;;;137722;1272;22343;-83
2023/06/22 07:23:19;;;;;;;;;;;;;;;;;;137773;1271;22433;-84
2023/06/22 07:26:21;;;;;;;;;;;;;;;;;;137733;1271;22730;-83
2023/06/22 07:29:24;;;;;;;;;;;;;;;;;;137690;1271;22394;-83
2023/06/22 07:32:28;;;;;;;;;;;;;;;;;;137773;1271;22496;-83
2023/06/22 07:35:30;;;;;;;;;;;;;;;;;;137512;1272;22884;-84
2023/06/22 07:38:33;;;;;;;;;;;;;;;;;;137620;1271;22510;-82
2023/06/22 07:41:36;;;;;;;;;;;;;;;;;;137766;1271;22500;-82
2023/06/22 07:44:38;;;;;;;;;;;;;;;;;;137810;1272;23213;-82
2023/06/22 07:47:41;;;;;;;;;;;;;;;;;;137716;1271;22515;-81
2023/06/22 07:50:43;;;;;;;;;;;;;;;;;;137767;1272;22312;-83
2023/06/22 07:53:46;;;;;;;;;;;;;;;;;;137681;1271;22932;-81
2023/06/22 07:56:48;;;;;;;;;;;;;;;;;;137780;1272;23161;-83
2023/06/22 07:59:51;;;;;;;;;;;;;;;;;;137757;1271;22369;-82
2023/06/22 08:02:53;;;;;;;;;;;;;;;;;;137686;1271;22443;-82
2023/06/22 08:05:56;;;;;;;;;;;;;;;;;;137762;1271;22799;-81
2023/06/22 08:08:58;;;;;;;;;;;;;;;;;;137786;1272;23099;-82
2023/06/22 08:12:01;;;;;;;;;;;;;;;;;;137730;1271;22428;-81
2023/06/22 08:15:03;;;;;;;;;;;;;;;;;;137691;1272;22314;-82
2023/06/22 08:18:06;;;;;;;;;;;;;;;;;;137766;1271;23287;-81
2023/06/22 08:21:09;;;;;;;;;;;;;;;;;;137705;1271;22800;-82
2023/06/22 08:24:11;;;;;;;;;;;;;;;;;;137779;1271;22329;-83
2023/06/22 08:27:14;;;;;;;;;;;;;;;;;;137794;1271;22346;-83
2023/06/22 08:30:17;;;;;;;;;;;;;;;;;;137747;1271;23093;-83
2023/06/22 08:33:19;;;;;;;;;;;;;;;;;;137759;1271;22334;-83
2023/06/22 08:36:22;;;;;;;;;;;;;;;;;;137777;1271;22389;-83
2023/06/22 08:39:25;;;;;;;;;;;;;;;;;;137780;1271;22387;-83
2023/06/22 08:42:28;;;;;;;;;;;;;;;;;;137725;1272;22533;-80
2023/06/22 08:45:30;;;;;;;;;;;;;;;;;;137768;1272;22320;-83
2023/06/22 08:48:36;;;;;;;;;;;;;;;;;;137763;1271;22334;-82
2023/06/22 08:51:39;;;;;;;;;;;;;;;;;;137800;1271;22308;-81
2023/06/22 08:54:41;;;;;;;;;;;;;;;;;;137776;1272;22942;-83
2023/06/22 08:57:44;;;;;;;;;;;;;;;;;;137737;1272;22534;-83
2023/06/22 09:00:47;;;;;;;;;;;;;;;;;;137687;1271;22938;-84
2023/06/22 09:03:55;;;;;;;;;;;;;;;;;;137801;1271;22746;-83
2023/06/22 09:06:58;;;;;;;;;;;;;;;;;;137716;1272;23036;-83
2023/06/22 09:10:00;;;;;;;;;;;;;;;;;;137774;1271;22677;-84
2023/06/22 09:13:03;;;;;;;;;;;;;;;;;;137810;1260;22627;-83
2023/06/22 09:16:06;;;;;;;;;;;;;;;;;;137769;1271;22853;-82
2023/06/22 09:19:09;;;;;;;;;;;;;;;;;;137832;1271;22244;-83
2023/06/22 09:22:14;;;;;;;;;;;;;;;;;;137804;1271;22833;-82
2023/06/22 09:25:16;;;;;;;;;;;;;;;;;;137769;1271;22343;-84
2023/06/22 09:28:22;;;;;;;;;;;;;;;;;;137728;1271;22714;-83
2023/06/22 09:31:26;;;;;;;;;;;;;;;;;;137777;1272;22869;-83
2023/06/22 09:34:32;;;;;;;;;;;;;;;;;;137780;1271;22368;-82
2023/06/22 09:37:34;;;;;;;;;;;;;;;;;;137792;1271;22375;-82
2023/06/22 09:40:39;;;;;;;;;;;;;;;;;;137762;1271;23002;-83
2023/06/22 09:43:42;;;;;;;;;;;;;;;;;;137810;1271;22486;-83
2023/06/22 09:46:45;;;;;;;;;;;;;;;;;;137795;1271;22339;-83
2023/06/22 09:49:47;;;;;;;;;;;;;;;;;;137719;1267;22492;-83
2023/06/22 09:52:54;;;;;;;;;;;;;;;;;;137397;1272;22486;-83
2023/06/22 09:55:57;;;;;;;;;;;;;;;;;;137833;1260;22260;-83
2023/06/22 09:58:59;;;;;;;;;;;;;;;;;;137840;1267;22301;-83
2023/06/22 10:02:02;;;;;;;;;;;;;;;;;;137793;1267;22861;-84
2023/06/22 10:05:04;;;;;;;;;;;;;;;;;;137741;1271;22527;-83
2023/06/22 10:08:09;;;;;;;;;;;;;;;;;;137785;1271;22496;-84
2023/06/22 10:11:12;;;;;;;;;;;;;;;;;;137812;1271;22330;-83
2023/06/22 10:14:14;;;;;;;;;;;;;;;;;;137725;1264;22754;-84
2023/06/22 10:17:17;;;;;;;;;;;;;;;;;;137778;1272;22372;-82
2023/06/22 10:20:23;;;;;;;;;;;;;;;;;;137713;1271;22415;-82
2023/06/22 10:23:25;;;;;;;;;;;;;;;;;;137744;1271;22895;-82
2023/06/22 10:26:29;;;;;;;;;;;;;;;;;;137761;1271;22319;-82
2023/06/22 10:29:31;;;;;;;;;;;;;;;;;;137739;1271;23130;-83
2023/06/22 10:32:34;;;;;;;;;;;;;;;;;;137732;1271;23183;-83
2023/06/22 10:35:37;;;;;;;;;;;;;;;;;;137727;1271;22320;-82
2023/06/22 10:38:39;;;;;;;;;;;;;;;;;;137725;1271;22328;-82
2023/06/22 10:41:42;;;;;;;;;;;;;;;;;;137810;1271;22319;-83
2023/06/22 10:44:44;;;;;;;;;;;;;;;;;;137807;1271;22304;-82
2023/06/22 10:47:47;;;;;;;;;;;;;;;;;;137718;1271;22332;-83
2023/06/22 10:50:49;;;;;;;;;;;;;;;;;;137730;1271;22261;-83
2023/06/22 10:53:52;;;;;;;;;;;;;;;;;;137742;1271;22717;-83
2023/06/22 10:56:54;;;;;;;;;;;;;;;;;;137745;1271;23284;-82
2023/06/22 11:00:00;;;;;;;;;;;;;;;;;;137730;1271;23218;-82
2023/06/22 11:03:03;;;;;;;;;;;;;;;;;;137798;1271;22407;-82
2023/06/22 11:06:05;;;;;;;;;;;;;;;;;;137783;1271;22333;-83
2023/06/22 11:09:08;;;;;;;;;;;;;;;;;;137792;1271;22530;-82
2023/06/22 11:12:11;;;;;;;;;;;;;;;;;;137801;1271;22747;-84
2023/06/22 11:15:13;;;;;;;;;;;;;;;;;;137733;1271;22559;-82
2023/06/22 11:18:15;;;;;;;;;;;;;;;;;;137493;1271;22509;-83
2023/06/22 11:21:18;;;;;;;;;;;;;;;;;;137405;1271;22812;-82
2023/06/22 11:24:25;;;;;;;;;;;;;;;;;;137640;1271;22545;-83
2023/06/22 11:27:28;;;;;;;;;;;;;;;;;;137485;1271;22542;-84
2023/06/22 11:30:30;;;;;;;;;;;;;;;;;;137401;1271;24301;-83
2023/06/22 11:33:32;;;;;;;;;;;;;;;;;;137516;1271;22556;-83
2023/06/22 11:36:35;;;;;;;;;;;;;;;;;;137487;1271;22510;-82
2023/06/22 11:39:37;;;;;;;;;;;;;;;;;;137206;1271;22540;-85
2023/06/22 11:42:43;;;;;;;;;;;;;;;;;;137669;1271;22465;-84
2023/06/22 11:45:46;;;;;;;;;;;;;;;;;;137852;1271;22365;-83
2023/06/22 11:48:50;;;;;;;;;;;;;;;;;;137022;1271;22540;-83
2023/06/22 11:51:53;;;;;;;;;;;;;;;;;;137633;1271;25271;-84
2023/06/22 11:54:56;;;;;;;;;;;;;;;;;;137754;1271;22491;-83
2023/06/22 11:58:02;;;;;;;;;;;;;;;;;;137770;1271;22314;-83
2023/06/22 12:01:05;;;;;;;;;;;;;;;;;;137812;1271;22756;-83
2023/06/22 12:04:13;;;;;;;;;;;;;;;;;;137719;1271;22312;-83
2023/06/22 12:07:16;;;;;;;;;;;;;;;;;;137764;1271;22406;-83
2023/06/22 12:10:18;;;;;;;;;;;;;;;;;;137743;1271;22341;-82
2023/06/22 12:13:21;;;;;;;;;;;;;;;;;;137669;1271;22339;-80
2023/06/22 12:16:24;;;;;;;;;;;;;;;;;;137768;1271;22388;-81
2023/06/22 12:19:27;;;;;;;;;;;;;;;;;;137746;1271;22314;-83
2023/06/22 12:22:29;;;;;;;;;;;;;;;;;;137735;1267;22678;-84
2023/06/22 12:25:32;;;;;;;;;;;;;;;;;;137715;1271;22317;-83
2023/06/22 12:28:34;;;;;;;;;;;;;;;;;;137750;1271;22422;-83
2023/06/22 13:04:04;;;;;;;;;;;;;;;;;;133160;1308;544764;-82
2023/06/22 13:07:05;;;;;;;;;;;;;;;;;;136475;1285;22367;-83
2023/06/22 13:10:06;;;;;;;;;;;;;;;;;;136507;1285;22293;-84
2023/06/22 13:13:10;;;;;;;;;;;;;;;;;;136502;1285;22333;-84
2023/06/22 13:16:11;;;;;;;;;;;;;;;;;;136604;1278;206383;-82
2023/06/22 13:19:15;;;;;;;;;;;;;;;;;;137004;1278;22337;-84
2023/06/22 13:22:16;;;;;;;;;;;;;;;;;;136972;1278;22349;-84
2023/06/22 13:25:19;;;;;;;;;;;;;;;;;;136997;1278;22394;-84
2023/06/22 13:28:21;;;;;;;;;;;;;;;;;;137333;1274;22292;-84
2023/06/22 13:31:22;;;;;;;;;;;;;;;;;;137651;1271;22417;-85
2023/06/22 13:34:26;;;;;;;;;;;;;;;;;;137427;1271;22540;-83
2023/06/22 13:37:27;;;;;;;;;;;;;;;;;;137768;1271;22572;-84
2023/06/22 13:40:29;;;;;;;;;;;;;;;;;;137580;1271;22494;-84
2023/06/22 13:43:30;;;;;;;;;;;;;;;;;;137514;1271;22491;-83
2023/06/22 13:46:31;;;;;;;;;;;;;;;;;;137296;1261;22607;-81
2023/06/22 13:49:33;;;;;;;;;;;;;;;;;;137549;1271;22579;-82
2023/06/22 13:52:36;;;;;;;;;;;;;;;;;;137338;1271;22486;-83
2023/06/22 13:55:38;;;;;;;;;;;;;;;;;;137269;1271;23116;-83
2023/06/22 13:58:39;;;;;;;;;;;;;;;;;;137580;1271;22518;-83
2023/06/22 14:01:40;;;;;;;;;;;;;;;;;;137431;1271;22922;-81
2023/06/22 14:04:42;;;;;;;;;;;;;;;;;;137508;1271;22485;-81
2023/06/22 14:07:43;;;;;;;;;;;;;;;;;;137753;1271;22530;-83
2023/06/22 14:10:44;;;;;;;;;;;;;;;;;;137783;1271;22508;-83
2023/06/22 14:13:45;;;;;;;;;;;;;;;;;;137480;1272;22518;-83
2023/06/22 14:16:47;;;;;;;;;;;;;;;;;;137243;1271;22563;-82
2023/06/22 14:19:48;;;;;;;;;;;;;;;;;;137051;1271;22579;-84
2023/06/22 14:22:49;;;;;;;;;;;;;;;;;;137067;1272;22861;-83
2023/06/22 14:25:51;;;;;;;;;;;;;;;;;;137233;1271;22648;-84
2023/06/22 14:28:52;;;;;;;;;;;;;;;;;;137705;1268;22304;-83
2023/06/22 14:31:53;;;;;;;;;;;;;;;;;;137266;1272;22497;-83
2023/06/22 14:34:54;;;;;;;;;;;;;;;;;;137241;1271;22529;-84
2023/06/22 14:37:55;;;;;;;;;;;;;;;;;;137674;1272;22275;-83
2023/06/22 14:40:56;;;;;;;;;;;;;;;;;;137713;1272;22287;-83
2023/06/22 14:43:57;;;;;;;;;;;;;;;;;;137305;1272;22491;-83
2023/06/22 14:46:58;;;;;;;;;;;;;;;;;;137512;1272;22547;-82
2023/06/22 14:50:00;;;;;;;;;;;;;;;;;;137480;1272;22710;-81
2023/06/22 14:53:01;;;;;;;;;;;;;;;;;;137164;1271;22513;-83
2023/06/22 14:56:03;;;;;;;;;;;;;;;;;;137138;1271;25137;-84
2023/06/22 14:59:04;;;;;;;;;;;;;;;;;;137620;1272;22955;-82
2023/06/22 15:02:05;;;;;;;;;;;;;;;;;;136935;1272;22551;-83
2023/06/22 15:05:06;;;;;;;;;;;;;;;;;;137167;1271;22530;-81
2023/06/22 15:08:07;;;;;;;;;;;;;;;;;;137653;1272;22924;-82
2023/06/22 15:11:08;;;;;;;;;;;;;;;;;;137166;1272;22489;-82
2023/06/22 15:14:09;;;;;;;;;;;;;;;;;;137209;1269;22485;-83
2023/06/22 15:17:13;;;;;;;;;;;;;;;;;;137596;1271;22580;-81
2023/06/22 15:20:15;;;;;;;;;;;;;;;;;;137004;1272;22549;-83
2023/06/22 15:23:16;;;;;;;;;;;;;;;;;;137308;1271;22489;-83
2023/06/22 15:26:17;;;;;;;;;;;;;;;;;;137379;1272;22947;-84
2023/06/22 15:29:22;;;;;;;;;;;;;;;;;;137136;1271;22524;-83
2023/06/22 15:32:26;;;;;;;;;;;;;;;;;;137222;1272;22600;-83
2023/06/22 15:35:27;;;;;;;;;;;;;;;;;;137523;1272;25374;-82
2023/06/22 15:38:28;;;;;;;;;;;;;;;;;;137529;1272;22552;-83
2023/06/22 15:41:29;;;;;;;;;;;;;;;;;;137321;1268;22498;-83
2023/06/22 15:44:36;;;;;;;;;;;;;;;;;;137159;1271;22539;-83
2023/06/22 15:47:37;;;;;;;;;;;;;;;;;;137510;1272;22564;-85
2023/06/22 15:50:39;;;;;;;;;;;;;;;;;;136959;1272;23340;-84
2023/06/22 15:53:40;;;;;;;;;;;;;;;;;;137254;1272;22524;-84
2023/06/22 15:56:41;;;;;;;;;;;;;;;;;;137681;1272;22319;-85
2023/06/22 15:59:42;;;;;;;;;;;;;;;;;;137671;1272;22401;-84
2023/06/22 16:02:43;;;;;;;;;;;;;;;;;;137685;1272;22401;-84
2023/06/22 16:05:44;;;;;;;;;;;;;;;;;;137688;1271;22311;-84
2023/06/22 16:08:46;;;;;;;;;;;;;;;;;;137462;1272;23002;-84
2023/06/22 16:11:47;;;;;;;;;;;;;;;;;;137049;1272;22944;-85
2023/06/22 16:14:48;;;;;;;;;;;;;;;;;;137719;1272;22540;-84
2023/06/22 16:17:49;;;;;;;;;;;;;;;;;;137729;1272;22805;-84
2023/06/22 16:20:50;;;;;;;;;;;;;;;;;;137709;1272;22790;-84
2023/06/22 16:23:51;;;;;;;;;;;;;;;;;;137723;1269;22261;-84
2023/06/22 16:26:55;;;;;;;;;;;;;;;;;;137370;1272;22476;-82
2023/06/22 16:29:56;;;;;;;;;;;;;;;;;;137328;1270;22488;-82
2023/06/22 16:32:58;;;;;;;;;;;;;;;;;;137623;1272;22557;-84
2023/06/22 16:36:00;;;;;;;;;;;;;;;;;;137659;1272;22937;-85
2023/06/22 16:39:01;;;;;;;;;;;;;;;;;;137652;1272;22502;-85
2023/06/22 16:42:02;;;;;;;;;;;;;;;;;;137657;1272;22830;-84
2023/06/22 16:45:03;;;;;;;;;;;;;;;;;;137707;1272;22296;-85
2023/06/22 16:48:04;;;;;;;;;;;;;;;;;;137404;1272;22532;-84
2023/06/22 16:51:08;;;;;;;;;;;;;;;;;;137741;1272;22359;-84
2023/06/22 16:54:09;;;;;;;;;;;;;;;;;;137672;1269;22279;-83
2023/06/22 16:57:13;;;;;;;;;;;;;;;;;;137634;1272;23050;-85
2023/06/22 17:00:14;;;;;;;;;;;;;;;;;;137331;1271;25221;-85
2023/06/22 17:03:15;;;;;;;;;;;;;;;;;;137480;1271;22519;-87
2023/06/22 17:06:22;;;;;;;;;;;;;;;;;;136311;1271;22506;-84
2023/06/22 17:09:23;;;;;;;;;;;;;;;;;;137303;1272;22538;-84
2023/06/22 17:12:24;;;;;;;;;;;;;;;;;;137570;1272;24221;-84
2023/06/22 17:15:25;;;;;;;;;;;;;;;;;;137202;1272;22500;-84
2023/06/22 17:18:26;;;;;;;;;;;;;;;;;;137324;1272;22605;-84
2023/06/22 17:21:29;;;;;;;;;;;;;;;;;;137663;1272;22503;-84
2023/06/22 17:24:30;;;;;;;;;;;;;;;;;;137220;1271;22564;-84
2023/06/22 17:27:32;;;;;;;;;;;;;;;;;;137283;1260;22492;-85
2023/06/22 17:30:33;;;;;;;;;;;;;;;;;;137664;1271;22515;-84
2023/06/22 17:33:34;;;;;;;;;;;;;;;;;;137137;1272;22531;-81
2023/06/22 17:36:35;;;;;;;;;;;;;;;;;;137216;1272;22501;-81
2023/06/22 17:39:36;;;;;;;;;;;;;;;;;;137526;1272;25803;-81
2023/06/22 17:42:37;;;;;;;;;;;;;;;;;;137285;1272;22524;-84
2023/06/22 17:45:38;;;;;;;;;;;;;;;;;;137196;1272;22559;-83
2023/06/22 17:48:39;;;;;;;;;;;;;;;;;;137472;1271;22515;-83
2023/06/22 17:51:40;;;;;;;;;;;;;;;;;;137554;1272;22552;-84
2023/06/22 17:54:41;;;;;;;;;;;;;;;;;;137230;1272;22483;-84
2023/06/22 17:57:46;;;;;;;;;;;;;;;;;;137195;1267;22555;-81
2023/06/22 18:00:47;;;;;;;;;;;;;;;;;;137660;1272;22521;-85
2023/06/22 18:03:48;;;;;;;;;;;;;;;;;;137181;1272;22559;-85
2023/06/22 18:06:49;;;;;;;;;;;;;;;;;;137164;1271;22545;-83
2023/06/22 18:09:50;;;;;;;;;;;;;;;;;;137681;1272;22492;-83
2023/06/22 18:12:51;;;;;;;;;;;;;;;;;;137240;1272;26016;-84
2023/06/22 18:15:52;;;;;;;;;;;;;;;;;;137727;1272;22513;-84
2023/06/22 18:18:53;;;;;;;;;;;;;;;;;;137732;1272;22323;-83
2023/06/22 18:21:55;;;;;;;;;;;;;;;;;;137244;1272;22989;-83
2023/06/22 18:24:56;;;;;;;;;;;;;;;;;;137131;1272;24194;-84
2023/06/22 18:27:57;;;;;;;;;;;;;;;;;;137586;1272;22512;-86
2023/06/22 18:30:58;;;;;;;;;;;;;;;;;;137135;1272;22533;-87
2023/06/22 18:33:59;;;;;;;;;;;;;;;;;;137199;1272;22504;-87
2023/06/22 18:37:00;;;;;;;;;;;;;;;;;;137542;1272;22529;-87
2023/06/22 18:40:03;;;;;;;;;;;;;;;;;;137251;1272;22590;-87
2023/06/22 18:43:07;;;;;;;;;;;;;;;;;;137167;1271;22488;-85
2023/06/22 18:46:08;;;;;;;;;;;;;;;;;;137464;1271;22532;-85
2023/06/22 18:49:09;;;;;;;;;;;;;;;;;;137454;1272;22515;-85
2023/06/22 18:52:10;;;;;;;;;;;;;;;;;;137326;1271;22523;-86
2023/06/22 18:55:11;;;;;;;;;;;;;;;;;;137371;1271;22606;-86
2023/06/22 18:58:14;;;;;;;;;;;;;;;;;;137472;1270;22506;-85
2023/06/22 19:01:15;;;;;;;;;;;;;;;;;;137154;1271;22951;-80
2023/06/22 19:04:19;;;;;;;;;;;;;;;;;;137341;1272;22548;-84
2023/06/22 19:07:21;;;;;;;;;;;;;;;;;;137650;1271;22506;-86
2023/06/22 19:10:23;;;;;;;;;;;;;;;;;;137179;1271;22494;-86
2023/06/22 19:13:26;;;;;;;;;;;;;;;;;;137074;1271;22518;-86
2023/06/22 19:16:28;;;;;;;;;;;;;;;;;;137379;1272;23151;-85
2023/06/22 19:19:29;;;;;;;;;;;;;;;;;;137121;1271;22498;-85
2023/06/22 19:22:30;;;;;;;;;;;;;;;;;;137324;1271;22598;-86
2023/06/22 19:25:33;;;;;;;;;;;;;;;;;;137337;1272;23070;-86
2023/06/22 19:28:35;;;;;;;;;;;;;;;;;;137305;1272;22588;-84
2023/06/22 19:31:36;;;;;;;;;;;;;;;;;;137378;1271;23530;-85
2023/06/22 19:34:37;;;;;;;;;;;;;;;;;;137678;1272;22525;-86
2023/06/22 19:37:40;;;;;;;;;;;;;;;;;;137318;1271;22505;-86
2023/06/22 19:40:41;;;;;;;;;;;;;;;;;;137420;1272;24980;-86
2023/06/22 19:43:45;;;;;;;;;;;;;;;;;;137425;1271;22540;-86
2023/06/22 19:46:47;;;;;;;;;;;;;;;;;;137092;1272;22676;-85
2023/06/22 19:49:49;;;;;;;;;;;;;;;;;;137599;1271;22488;-86
2023/06/22 19:52:55;;;;;;;;;;;;;;;;;;137715;1272;22515;-85
2023/06/22 19:56:00;;;;;;;;;;;;;;;;;;137314;1272;22486;-86
2023/06/22 19:59:02;;;;;;;;;;;;;;;;;;137565;1271;22512;-86
2023/06/22 20:02:05;;;;;;;;;;;;;;;;;;137237;1272;23084;-85
2023/06/22 20:05:07;;;;;;;;;;;;;;;;;;137137;1271;22581;-86
2023/06/22 20:08:08;;;;;;;;;;;;;;;;;;137187;1272;23108;-85
2023/06/22 20:11:09;;;;;;;;;;;;;;;;;;136688;1272;22641;-86
2023/06/22 20:14:12;;;;;;;;;;;;;;;;;;137751;1264;22638;-86
2023/06/22 20:17:24;;;;;;;;;;;;;;;;;;136857;1267;22466;-85
2023/06/22 20:20:26;;;;;;;;;;;;;;;;;;137372;1272;22689;-82
2023/06/22 20:23:27;;;;;;;;;;;;;;;;;;137712;1271;22900;-82
2023/06/22 20:26:28;;;;;;;;;;;;;;;;;;137497;1271;23083;-82
2023/06/22 20:29:29;;;;;;;;;;;;;;;;;;137434;1271;22987;-82
2023/06/22 20:32:30;;;;;;;;;;;;;;;;;;137666;1272;22510;-82
2023/06/22 20:35:32;;;;;;;;;;;;;;;;;;137486;1271;22491;-82
2023/06/22 20:38:33;;;;;;;;;;;;;;;;;;137785;1271;22285;-83
2023/06/22 20:41:34;;;;;;;;;;;;;;;;;;137754;1271;22424;-82
2023/06/22 20:44:35;;;;;;;;;;;;;;;;;;137284;1272;22558;-82
2023/06/22 20:47:37;;;;;;;;;;;;;;;;;;137340;1271;22567;-82
2023/06/22 20:50:38;;;;;;;;;;;;;;;;;;137661;1272;22535;-82
2023/06/22 20:53:39;;;;;;;;;;;;;;;;;;137355;1272;22479;-82
2023/06/22 20:56:40;;;;;;;;;;;;;;;;;;137374;1272;22556;-82
2023/06/22 20:59:41;;;;;;;;;;;;;;;;;;137655;1272;22461;-81
2023/06/22 21:02:43;;;;;;;;;;;;;;;;;;137574;1271;22482;-82
2023/06/22 21:05:46;;;;;;;;;;;;;;;;;;137699;1272;22535;-83
2023/06/22 21:08:47;;;;;;;;;;;;;;;;;;137451;1272;24977;-82
2023/06/22 21:11:48;;;;;;;;;;;;;;;;;;137746;1271;22551;-83
2023/06/22 21:14:49;;;;;;;;;;;;;;;;;;137421;1268;22498;-81
2023/06/22 21:17:50;;;;;;;;;;;;;;;;;;137471;1271;22492;-81
2023/06/22 21:20:51;;;;;;;;;;;;;;;;;;137739;1271;22500;-80
2023/06/22 21:23:52;;;;;;;;;;;;;;;;;;137422;1272;22481;-81
2023/06/22 21:26:54;;;;;;;;;;;;;;;;;;137394;1271;22456;-81